sensor_id;sensor_type;location;lat;lon;timestamp;P1;durP1;ratioP1;P2;durP2;ratioP2
16401;SDS011;8310;44.626;11.176;2023-04-26T00:00:11;5.10;;;4.65;;
16401;SDS011;8310;44.626;11.176;2023-04-26T00:02:39;4.70;;;4.30;;
16401;SDS011;8310;44.626;11.176;2023-04-26T00:05:07;4.78;;;4.40;;
16401;SDS011;8310;44.626;11.176;2023-04-26T00:07:35;5.03;;;4.63;;
16401;SDS011;8310;44.626;11.176;2023-04-26T00:10:04;6.32;;;5.35;;
16401;SDS011;8310;44.626;11.176;2023-04-26T00:12:32;5.50;;;5.00;;
16401;SDS011;8310;44.626;11.176;2023-04-26T00:15:00;5.18;;;4.78;;
16401;SDS011;8310;44.626;11.176;2023-04-26T00:17:29;5.22;;;4.60;;
16401;SDS011;8310;44.626;11.176;2023-04-26T00:19:57;4.28;;;3.88;;
16401;SDS011;8310;44.626;11.176;2023-04-26T00:22:31;5.88;;;4.95;;
16401;SDS011;8310;44.626;11.176;2023-04-26T00:24:58;4.55;;;4.13;;
16401;SDS011;8310;44.626;11.176;2023-04-26T00:27:26;4.85;;;4.55;;
16401;SDS011;8310;44.626;11.176;2023-04-26T00:29:53;4.57;;;4.28;;
16401;SDS011;8310;44.626;11.176;2023-04-26T00:32:21;4.88;;;4.07;;
16401;SDS011;8310;44.626;11.176;2023-04-26T00:34:50;4.10;;;3.80;;
16401;SDS011;8310;44.626;11.176;2023-04-26T00:37:18;4.20;;;3.90;;
16401;SDS011;8310;44.626;11.176;2023-04-26T00:39:46;4.00;;;3.70;;
16401;SDS011;8310;44.626;11.176;2023-04-26T00:42:14;3.90;;;3.65;;
16401;SDS011;8310;44.626;11.176;2023-04-26T00:44:43;4.03;;;3.75;;
16401;SDS011;8310;44.626;11.176;2023-04-26T00:47:11;3.75;;;3.45;;
16401;SDS011;8310;44.626;11.176;2023-04-26T00:49:38;4.63;;;4.22;;
16401;SDS011;8310;44.626;11.176;2023-04-26T00:52:08;4.07;;;3.78;;
16401;SDS011;8310;44.626;11.176;2023-04-26T00:54:36;4.35;;;3.95;;
16401;SDS011;8310;44.626;11.176;2023-04-26T00:57:04;4.20;;;3.88;;
16401;SDS011;8310;44.626;11.176;2023-04-26T00:59:33;4.65;;;4.25;;
16401;SDS011;8310;44.626;11.176;2023-04-26T01:02:01;5.00;;;4.57;;
16401;SDS011;8310;44.626;11.176;2023-04-26T01:04:28;4.63;;;4.22;;
16401;SDS011;8310;44.626;11.176;2023-04-26T01:06:57;5.20;;;4.70;;
16401;SDS011;8310;44.626;11.176;2023-04-26T01:09:28;4.47;;;4.18;;
16401;SDS011;8310;44.626;11.176;2023-04-26T01:11:57;4.43;;;4.13;;
16401;SDS011;8310;44.626;11.176;2023-04-26T01:14:26;4.32;;;4.03;;
16401;SDS011;8310;44.626;11.176;2023-04-26T01:16:55;4.10;;;3.80;;
16401;SDS011;8310;44.626;11.176;2023-04-26T01:19:23;5.05;;;4.63;;
16401;SDS011;8310;44.626;11.176;2023-04-26T01:21:51;4.60;;;4.30;;
16401;SDS011;8310;44.626;11.176;2023-04-26T01:24:21;4.35;;;4.05;;
16401;SDS011;8310;44.626;11.176;2023-04-26T01:26:48;4.10;;;3.80;;
16401;SDS011;8310;44.626;11.176;2023-04-26T01:29:17;3.92;;;3.70;;
16401;SDS011;8310;44.626;11.176;2023-04-26T01:31:45;3.85;;;3.55;;
16401;SDS011;8310;44.626;11.176;2023-04-26T01:34:14;3.97;;;3.67;;
16401;SDS011;8310;44.626;11.176;2023-04-26T01:36:44;3.92;;;3.53;;
16401;SDS011;8310;44.626;11.176;2023-04-26T01:39:12;4.40;;;4.10;;
16401;SDS011;8310;44.626;11.176;2023-04-26T01:41:41;3.95;;;3.60;;
16401;SDS011;8310;44.626;11.176;2023-04-26T01:44:08;4.00;;;3.70;;
16401;SDS011;8310;44.626;11.176;2023-04-26T01:46:36;3.53;;;3.33;;
16401;SDS011;8310;44.626;11.176;2023-04-26T01:49:04;3.55;;;3.30;;
16401;SDS011;8310;44.626;11.176;2023-04-26T01:51:31;3.30;;;3.10;;
16401;SDS011;8310;44.626;11.176;2023-04-26T01:54:00;3.97;;;2.85;;
16401;SDS011;8310;44.626;11.176;2023-04-26T01:56:28;2.88;;;2.78;;
16401;SDS011;8310;44.626;11.176;2023-04-26T01:58:57;3.20;;;3.00;;
16401;SDS011;8310;44.626;11.176;2023-04-26T02:01:24;3.17;;;2.97;;
16401;SDS011;8310;44.626;11.176;2023-04-26T02:03:55;3.35;;;3.05;;
16401;SDS011;8310;44.626;11.176;2023-04-26T02:06:22;2.97;;;2.78;;
16401;SDS011;8310;44.626;11.176;2023-04-26T02:08:50;3.33;;;3.10;;
16401;SDS011;8310;44.626;11.176;2023-04-26T02:11:18;3.08;;;2.90;;
16401;SDS011;8310;44.626;11.176;2023-04-26T02:13:46;3.05;;;2.85;;
16401;SDS011;8310;44.626;11.176;2023-04-26T02:16:15;3.22;;;3.03;;
16401;SDS011;8310;44.626;11.176;2023-04-26T02:18:42;3.30;;;3.10;;
16401;SDS011;8310;44.626;11.176;2023-04-26T02:21:10;3.20;;;3.00;;
16401;SDS011;8310;44.626;11.176;2023-04-26T02:23:37;2.90;;;2.80;;
16401;SDS011;8310;44.626;11.176;2023-04-26T02:26:05;3.22;;;3.03;;
16401;SDS011;8310;44.626;11.176;2023-04-26T02:28:32;3.25;;;3.05;;
16401;SDS011;8310;44.626;11.176;2023-04-26T02:31:00;2.90;;;2.80;;
16401;SDS011;8310;44.626;11.176;2023-04-26T02:33:30;3.25;;;3.05;;
16401;SDS011;8310;44.626;11.176;2023-04-26T02:36:00;3.53;;;3.33;;
16401;SDS011;8310;44.626;11.176;2023-04-26T02:38:29;3.20;;;2.92;;
16401;SDS011;8310;44.626;11.176;2023-04-26T02:40:58;3.47;;;3.28;;
16401;SDS011;8310;44.626;11.176;2023-04-26T02:43:27;4.03;;;3.72;;
16401;SDS011;8310;44.626;11.176;2023-04-26T02:45:54;4.18;;;3.85;;
16401;SDS011;8310;44.626;11.176;2023-04-26T02:48:23;3.85;;;3.60;;
16401;SDS011;8310;44.626;11.176;2023-04-26T02:50:52;4.13;;;3.88;;
16401;SDS011;8310;44.626;11.176;2023-04-26T02:53:20;3.67;;;3.47;;
16401;SDS011;8310;44.626;11.176;2023-04-26T02:56:09;4.22;;;3.83;;
16401;SDS011;8310;44.626;11.176;2023-04-26T02:58:36;4.45;;;4.07;;
16401;SDS011;8310;44.626;11.176;2023-04-26T03:01:04;4.18;;;3.78;;
16401;SDS011;8310;44.626;11.176;2023-04-26T03:03:32;3.80;;;3.50;;
16401;SDS011;8310;44.626;11.176;2023-04-26T03:06:02;3.70;;;3.50;;
16401;SDS011;8310;44.626;11.176;2023-04-26T03:08:30;3.47;;;3.17;;
16401;SDS011;8310;44.626;11.176;2023-04-26T03:10:59;3.75;;;3.45;;
16401;SDS011;8310;44.626;11.176;2023-04-26T03:13:26;4.10;;;3.80;;
16401;SDS011;8310;44.626;11.176;2023-04-26T03:15:54;4.82;;;3.75;;
16401;SDS011;8310;44.626;11.176;2023-04-26T03:18:22;3.95;;;3.65;;
16401;SDS011;8310;44.626;11.176;2023-04-26T03:20:49;4.30;;;4.00;;
16401;SDS011;8310;44.626;11.176;2023-04-26T03:23:21;4.00;;;3.70;;
16401;SDS011;8310;44.626;11.176;2023-04-26T03:25:49;3.95;;;3.63;;
16401;SDS011;8310;44.626;11.176;2023-04-26T03:28:17;3.70;;;3.50;;
16401;SDS011;8310;44.626;11.176;2023-04-26T03:30:44;3.40;;;3.10;;
16401;SDS011;8310;44.626;11.176;2023-04-26T03:33:13;3.47;;;3.28;;
16401;SDS011;8310;44.626;11.176;2023-04-26T03:35:41;3.67;;;3.47;;
16401;SDS011;8310;44.626;11.176;2023-04-26T03:38:09;3.97;;;3.67;;
16401;SDS011;8310;44.626;11.176;2023-04-26T03:40:39;3.53;;;3.33;;
16401;SDS011;8310;44.626;11.176;2023-04-26T03:43:07;3.38;;;3.17;;
16401;SDS011;8310;44.626;11.176;2023-04-26T03:45:34;3.25;;;2.95;;
16401;SDS011;8310;44.626;11.176;2023-04-26T03:48:02;3.15;;;2.85;;
16401;SDS011;8310;44.626;11.176;2023-04-26T03:50:30;2.92;;;2.75;;
16401;SDS011;8310;44.626;11.176;2023-04-26T03:52:58;3.10;;;2.90;;
16401;SDS011;8310;44.626;11.176;2023-04-26T03:55:26;3.65;;;2.80;;
16401;SDS011;8310;44.626;11.176;2023-04-26T03:57:55;2.97;;;2.78;;
16401;SDS011;8310;44.626;11.176;2023-04-26T04:00:23;2.70;;;2.60;;
16401;SDS011;8310;44.626;11.176;2023-04-26T04:02:51;2.63;;;2.42;;
16401;SDS011;8310;44.626;11.176;2023-04-26T04:05:19;2.83;;;2.35;;
16401;SDS011;8310;44.626;11.176;2023-04-26T04:07:46;2.42;;;2.33;;
16401;SDS011;8310;44.626;11.176;2023-04-26T04:10:14;2.22;;;2.13;;
16401;SDS011;8310;44.626;11.176;2023-04-26T04:12:42;2.00;;;1.90;;
16401;SDS011;8310;44.626;11.176;2023-04-26T04:15:11;2.60;;;2.40;;
16401;SDS011;8310;44.626;11.176;2023-04-26T04:17:42;2.85;;;2.60;;
16401;SDS011;8310;44.626;11.176;2023-04-26T04:20:10;3.22;;;2.80;;
16401;SDS011;8310;44.626;11.176;2023-04-26T04:22:38;3.05;;;2.80;;
16401;SDS011;8310;44.626;11.176;2023-04-26T04:25:06;3.63;;;2.70;;
16401;SDS011;8310;44.626;11.176;2023-04-26T04:27:34;3.22;;;2.95;;
16401;SDS011;8310;44.626;11.176;2023-04-26T04:30:02;3.22;;;2.80;;
16401;SDS011;8310;44.626;11.176;2023-04-26T04:32:33;3.22;;;3.00;;
16401;SDS011;8310;44.626;11.176;2023-04-26T04:35:00;3.63;;;3.15;;
16401;SDS011;8310;44.626;11.176;2023-04-26T04:37:28;3.00;;;2.80;;
16401;SDS011;8310;44.626;11.176;2023-04-26T04:39:57;3.70;;;3.50;;
16401;SDS011;8310;44.626;11.176;2023-04-26T04:42:25;4.20;;;3.90;;
16401;SDS011;8310;44.626;11.176;2023-04-26T04:44:56;3.97;;;3.70;;
16401;SDS011;8310;44.626;11.176;2023-04-26T04:47:23;4.60;;;3.22;;
16401;SDS011;8310;44.626;11.176;2023-04-26T04:49:52;6.05;;;3.90;;
16401;SDS011;8310;44.626;11.176;2023-04-26T04:52:20;3.45;;;3.25;;
16401;SDS011;8310;44.626;11.176;2023-04-26T04:54:47;4.78;;;3.50;;
16401;SDS011;8310;44.626;11.176;2023-04-26T04:57:15;3.95;;;3.65;;
16401;SDS011;8310;44.626;11.176;2023-04-26T04:59:43;3.70;;;3.50;;
16401;SDS011;8310;44.626;11.176;2023-04-26T05:02:11;3.60;;;3.40;;
16401;SDS011;8310;44.626;11.176;2023-04-26T05:04:38;4.38;;;3.53;;
16401;SDS011;8310;44.626;11.176;2023-04-26T05:07:07;3.50;;;3.25;;
16401;SDS011;8310;44.626;11.176;2023-04-26T05:09:35;12.38;;;7.55;;
16401;SDS011;8310;44.626;11.176;2023-04-26T05:12:04;3.80;;;3.60;;
16401;SDS011;8310;44.626;11.176;2023-04-26T05:14:31;3.97;;;3.63;;
16401;SDS011;8310;44.626;11.176;2023-04-26T05:16:59;5.38;;;3.42;;
16401;SDS011;8310;44.626;11.176;2023-04-26T05:19:27;5.53;;;3.58;;
16401;SDS011;8310;44.626;11.176;2023-04-26T05:21:55;4.68;;;3.95;;
16401;SDS011;8310;44.626;11.176;2023-04-26T05:24:24;4.32;;;3.92;;
16401;SDS011;8310;44.626;11.176;2023-04-26T05:26:54;4.97;;;3.45;;
16401;SDS011;8310;44.626;11.176;2023-04-26T05:29:27;3.65;;;3.40;;
16401;SDS011;8310;44.626;11.176;2023-04-26T05:31:55;3.80;;;3.50;;
16401;SDS011;8310;44.626;11.176;2023-04-26T05:34:24;3.85;;;3.53;;
16401;SDS011;8310;44.626;11.176;2023-04-26T05:36:51;4.07;;;3.78;;
16401;SDS011;8310;44.626;11.176;2023-04-26T05:39:19;4.40;;;4.10;;
16401;SDS011;8310;44.626;11.176;2023-04-26T05:41:49;4.85;;;4.45;;
16401;SDS011;8310;44.626;11.176;2023-04-26T05:44:17;6.00;;;4.75;;
16401;SDS011;8310;44.626;11.176;2023-04-26T05:46:44;5.03;;;4.03;;
16401;SDS011;8310;44.626;11.176;2023-04-26T05:49:13;5.57;;;4.20;;
16401;SDS011;8310;44.626;11.176;2023-04-26T05:51:40;4.60;;;4.28;;
16401;SDS011;8310;44.626;11.176;2023-04-26T05:54:08;4.63;;;4.30;;
16401;SDS011;8310;44.626;11.176;2023-04-26T05:56:35;4.28;;;3.85;;
16401;SDS011;8310;44.626;11.176;2023-04-26T05:59:04;4.60;;;4.25;;
16401;SDS011;8310;44.626;11.176;2023-04-26T06:01:31;5.03;;;4.53;;
16401;SDS011;8310;44.626;11.176;2023-04-26T06:04:02;6.00;;;4.22;;
16401;SDS011;8310;44.626;11.176;2023-04-26T06:06:33;4.35;;;3.78;;
16401;SDS011;8310;44.626;11.176;2023-04-26T06:09:01;5.22;;;4.22;;
16401;SDS011;8310;44.626;11.176;2023-04-26T06:11:28;4.43;;;4.03;;
16401;SDS011;8310;44.626;11.176;2023-04-26T06:13:56;4.40;;;4.07;;
16401;SDS011;8310;44.626;11.176;2023-04-26T06:16:25;4.03;;;3.72;;
16401;SDS011;8310;44.626;11.176;2023-04-26T06:18:53;4.25;;;3.90;;
16401;SDS011;8310;44.626;11.176;2023-04-26T06:21:22;5.22;;;3.95;;
16401;SDS011;8310;44.626;11.176;2023-04-26T06:23:50;4.85;;;4.38;;
16401;SDS011;8310;44.626;11.176;2023-04-26T06:26:17;4.97;;;4.57;;
16401;SDS011;8310;44.626;11.176;2023-04-26T06:28:45;5.75;;;4.53;;
16401;SDS011;8310;44.626;11.176;2023-04-26T06:31:13;7.57;;;5.15;;
16401;SDS011;8310;44.626;11.176;2023-04-26T06:33:43;9.75;;;5.88;;
16401;SDS011;8310;44.626;11.176;2023-04-26T06:36:11;5.45;;;4.95;;
16401;SDS011;8310;44.626;11.176;2023-04-26T06:38:38;5.63;;;5.07;;
16401;SDS011;8310;44.626;11.176;2023-04-26T06:41:07;6.07;;;5.50;;
16401;SDS011;8310;44.626;11.176;2023-04-26T06:43:34;6.25;;;5.65;;
16401;SDS011;8310;44.626;11.176;2023-04-26T06:46:02;5.90;;;5.50;;
16401;SDS011;8310;44.626;11.176;2023-04-26T06:48:34;5.50;;;5.00;;
16401;SDS011;8310;44.626;11.176;2023-04-26T06:51:05;6.05;;;4.80;;
16401;SDS011;8310;44.626;11.176;2023-04-26T06:53:33;5.05;;;4.65;;
16401;SDS011;8310;44.626;11.176;2023-04-26T06:56:00;5.15;;;4.75;;
16401;SDS011;8310;44.626;11.176;2023-04-26T06:58:29;5.18;;;4.78;;
16401;SDS011;8310;44.626;11.176;2023-04-26T07:00:56;4.68;;;4.28;;
16401;SDS011;8310;44.626;11.176;2023-04-26T07:03:24;5.20;;;4.85;;
16401;SDS011;8310;44.626;11.176;2023-04-26T07:05:51;4.72;;;4.32;;
16401;SDS011;8310;44.626;11.176;2023-04-26T07:08:21;4.97;;;4.50;;
16401;SDS011;8310;44.626;11.176;2023-04-26T07:10:49;5.30;;;4.90;;
16401;SDS011;8310;44.626;11.176;2023-04-26T07:13:17;4.50;;;4.20;;
16401;SDS011;8310;44.626;11.176;2023-04-26T07:15:45;4.88;;;4.57;;
16401;SDS011;8310;44.626;11.176;2023-04-26T07:18:15;5.05;;;4.65;;
16401;SDS011;8310;44.626;11.176;2023-04-26T07:20:43;4.85;;;4.45;;
16401;SDS011;8310;44.626;11.176;2023-04-26T07:23:10;4.93;;;4.55;;
16401;SDS011;8310;44.626;11.176;2023-04-26T07:25:40;4.93;;;4.35;;
16401;SDS011;8310;44.626;11.176;2023-04-26T07:28:08;5.00;;;4.60;;
16401;SDS011;8310;44.626;11.176;2023-04-26T07:30:35;4.95;;;4.57;;
16401;SDS011;8310;44.626;11.176;2023-04-26T07:33:03;4.68;;;4.22;;
16401;SDS011;8310;44.626;11.176;2023-04-26T07:35:30;4.82;;;4.13;;
16401;SDS011;8310;44.626;11.176;2023-04-26T07:37:59;4.90;;;4.50;;
16401;SDS011;8310;44.626;11.176;2023-04-26T07:40:26;4.80;;;4.40;;
16401;SDS011;8310;44.626;11.176;2023-04-26T07:42:56;4.72;;;4.32;;
16401;SDS011;8310;44.626;11.176;2023-04-26T07:45:27;4.65;;;4.35;;
16401;SDS011;8310;44.626;11.176;2023-04-26T07:47:56;4.70;;;4.30;;
16401;SDS011;8310;44.626;11.176;2023-04-26T07:50:24;4.72;;;4.32;;
16401;SDS011;8310;44.626;11.176;2023-04-26T07:52:51;4.10;;;3.90;;
16401;SDS011;8310;44.626;11.176;2023-04-26T07:55:18;4.90;;;4.38;;
16401;SDS011;8310;44.626;11.176;2023-04-26T07:57:46;3.97;;;3.67;;
16401;SDS011;8310;44.626;11.176;2023-04-26T08:00:17;4.30;;;3.92;;
16401;SDS011;8310;44.626;11.176;2023-04-26T08:02:46;4.32;;;4.00;;
16401;SDS011;8310;44.626;11.176;2023-04-26T08:05:14;3.85;;;3.55;;
16401;SDS011;8310;44.626;11.176;2023-04-26T08:07:42;4.00;;;3.72;;
16401;SDS011;8310;44.626;11.176;2023-04-26T08:10:10;5.22;;;4.28;;
16401;SDS011;8310;44.626;11.176;2023-04-26T08:12:38;4.20;;;3.90;;
16401;SDS011;8310;44.626;11.176;2023-04-26T08:15:06;5.30;;;3.83;;
16401;SDS011;8310;44.626;11.176;2023-04-26T08:17:36;3.90;;;3.60;;
16401;SDS011;8310;44.626;11.176;2023-04-26T08:20:03;4.15;;;3.60;;
16401;SDS011;8310;44.626;11.176;2023-04-26T08:22:33;3.55;;;3.33;;
16401;SDS011;8310;44.626;11.176;2023-04-26T08:25:01;4.47;;;4.10;;
16401;SDS011;8310;44.626;11.176;2023-04-26T08:27:30;3.63;;;3.40;;
16401;SDS011;8310;44.626;11.176;2023-04-26T08:29:58;3.42;;;3.20;;
16401;SDS011;8310;44.626;11.176;2023-04-26T08:32:27;3.42;;;3.17;;
16401;SDS011;8310;44.626;11.176;2023-04-26T08:34:56;3.30;;;3.00;;
16401;SDS011;8310;44.626;11.176;2023-04-26T08:37:23;3.22;;;3.00;;
16401;SDS011;8310;44.626;11.176;2023-04-26T08:39:52;3.67;;;3.47;;
16401;SDS011;8310;44.626;11.176;2023-04-26T08:42:20;3.72;;;3.42;;
16401;SDS011;8310;44.626;11.176;2023-04-26T08:44:52;2.80;;;2.60;;
16401;SDS011;8310;44.626;11.176;2023-04-26T08:47:21;2.80;;;2.60;;
16401;SDS011;8310;44.626;11.176;2023-04-26T08:49:57;3.28;;;2.85;;
16401;SDS011;8310;44.626;11.176;2023-04-26T08:52:27;3.20;;;2.70;;
16401;SDS011;8310;44.626;11.176;2023-04-26T08:54:56;3.72;;;2.85;;
16401;SDS011;8310;44.626;11.176;2023-04-26T08:57:26;3.55;;;3.08;;
16401;SDS011;8310;44.626;11.176;2023-04-26T08:59:57;3.53;;;3.33;;
16401;SDS011;8310;44.626;11.176;2023-04-26T09:02:25;3.05;;;2.85;;
16401;SDS011;8310;44.626;11.176;2023-04-26T09:04:57;4.80;;;2.80;;
16401;SDS011;8310;44.626;11.176;2023-04-26T09:07:26;8.48;;;3.08;;
16401;SDS011;8310;44.626;11.176;2023-04-26T09:09:58;3.38;;;3.00;;
16401;SDS011;8310;44.626;11.176;2023-04-26T09:12:26;3.17;;;2.88;;
16401;SDS011;8310;44.626;11.176;2023-04-26T09:14:53;2.70;;;2.60;;
16401;SDS011;8310;44.626;11.176;2023-04-26T09:17:27;3.33;;;2.70;;
16401;SDS011;8310;44.626;11.176;2023-04-26T09:19:58;3.05;;;2.85;;
16401;SDS011;8310;44.626;11.176;2023-04-26T09:22:29;4.68;;;3.05;;
16401;SDS011;8310;44.626;11.176;2023-04-26T09:25:02;3.03;;;2.83;;
16401;SDS011;8310;44.626;11.176;2023-04-26T09:27:31;2.70;;;2.50;;
16401;SDS011;8310;44.626;11.176;2023-04-26T09:30:02;2.65;;;2.55;;
16401;SDS011;8310;44.626;11.176;2023-04-26T09:32:44;2.83;;;2.63;;
16401;SDS011;8310;44.626;11.176;2023-04-26T09:35:25;3.22;;;3.03;;
16401;SDS011;8310;44.626;11.176;2023-04-26T09:37:55;2.90;;;2.70;;
16401;SDS011;8310;44.626;11.176;2023-04-26T09:40:25;3.75;;;3.20;;
16401;SDS011;8310;44.626;11.176;2023-04-26T09:42:57;3.22;;;3.03;;
16401;SDS011;8310;44.626;11.176;2023-04-26T09:45:25;3.45;;;2.85;;
16401;SDS011;8310;44.626;11.176;2023-04-26T09:47:54;14.88;;;13.40;;
16401;SDS011;8310;44.626;11.176;2023-04-26T09:50:26;4.18;;;3.88;;
16401;SDS011;8310;44.626;11.176;2023-04-26T09:52:54;3.78;;;3.47;;
16401;SDS011;8310;44.626;11.176;2023-04-26T09:55:26;3.25;;;3.00;;
16401;SDS011;8310;44.626;11.176;2023-04-26T09:57:55;2.92;;;2.72;;
16401;SDS011;8310;44.626;11.176;2023-04-26T10:00:25;2.45;;;2.35;;
16401;SDS011;8310;44.626;11.176;2023-04-26T10:02:53;2.92;;;2.72;;
16401;SDS011;8310;44.626;11.176;2023-04-26T10:05:21;2.80;;;2.60;;
16401;SDS011;8310;44.626;11.176;2023-04-26T10:07:50;4.32;;;2.75;;
16401;SDS011;8310;44.626;11.176;2023-04-26T10:10:18;3.78;;;2.90;;
16401;SDS011;8310;44.626;11.176;2023-04-26T10:12:47;5.45;;;3.05;;
16401;SDS011;8310;44.626;11.176;2023-04-26T10:15:15;4.85;;;2.50;;
16401;SDS011;8310;44.626;11.176;2023-04-26T10:17:44;2.50;;;2.30;;
16401;SDS011;8310;44.626;11.176;2023-04-26T10:20:12;3.67;;;2.70;;
16401;SDS011;8310;44.626;11.176;2023-04-26T10:22:43;2.63;;;2.42;;
16401;SDS011;8310;44.626;11.176;2023-04-26T10:25:17;2.60;;;2.40;;
16401;SDS011;8310;44.626;11.176;2023-04-26T10:27:45;2.38;;;2.25;;
16401;SDS011;8310;44.626;11.176;2023-04-26T10:30:21;2.28;;;2.08;;
16401;SDS011;8310;44.626;11.176;2023-04-26T10:35:41;3.92;;;2.50;;
16401;SDS011;8310;44.626;11.176;2023-04-26T10:38:32;3.88;;;2.60;;
16401;SDS011;8310;44.626;11.176;2023-04-26T10:43:59;3.35;;;3.10;;
16401;SDS011;8310;44.626;11.176;2023-04-26T10:46:48;4.15;;;3.20;;
16401;SDS011;8310;44.626;11.176;2023-04-26T10:49:19;3.10;;;2.90;;
16401;SDS011;8310;44.626;11.176;2023-04-26T10:54:48;3.40;;;3.10;;
16401;SDS011;8310;44.626;11.176;2023-04-26T10:57:19;3.10;;;2.90;;
16401;SDS011;8310;44.626;11.176;2023-04-26T11:03:04;3.50;;;3.20;;
16401;SDS011;8310;44.626;11.176;2023-04-26T11:05:37;2.58;;;2.47;;
16401;SDS011;8310;44.626;11.176;2023-04-26T11:08:07;3.00;;;2.70;;
16401;SDS011;8310;44.626;11.176;2023-04-26T11:10:40;2.97;;;2.33;;
16401;SDS011;8310;44.626;11.176;2023-04-26T11:13:09;1.98;;;1.88;;
16401;SDS011;8310;44.626;11.176;2023-04-26T11:15:38;2.78;;;2.10;;
16401;SDS011;8310;44.626;11.176;2023-04-26T11:18:05;2.63;;;2.42;;
16401;SDS011;8310;44.626;11.176;2023-04-26T11:20:33;2.70;;;2.50;;
16401;SDS011;8310;44.626;11.176;2023-04-26T11:23:02;2.75;;;2.55;;
16401;SDS011;8310;44.626;11.176;2023-04-26T11:25:32;2.65;;;2.45;;
16401;SDS011;8310;44.626;11.176;2023-04-26T11:28:01;4.10;;;3.35;;
16401;SDS011;8310;44.626;11.176;2023-04-26T11:30:31;3.75;;;3.47;;
16401;SDS011;8310;44.626;11.176;2023-04-26T11:32:59;4.00;;;3.70;;
16401;SDS011;8310;44.626;11.176;2023-04-26T11:35:28;4.75;;;4.25;;
16401;SDS011;8310;44.626;11.176;2023-04-26T11:37:58;3.70;;;3.40;;
16401;SDS011;8310;44.626;11.176;2023-04-26T11:40:27;3.47;;;3.17;;
16401;SDS011;8310;44.626;11.176;2023-04-26T11:42:57;3.63;;;3.30;;
16401;SDS011;8310;44.626;11.176;2023-04-26T11:45:26;3.60;;;3.30;;
16401;SDS011;8310;44.626;11.176;2023-04-26T11:47:55;3.30;;;3.10;;
16401;SDS011;8310;44.626;11.176;2023-04-26T11:50:24;3.70;;;3.30;;
16401;SDS011;8310;44.626;11.176;2023-04-26T11:52:53;4.35;;;3.83;;
16401;SDS011;8310;44.626;11.176;2023-04-26T11:55:26;4.00;;;3.70;;
16401;SDS011;8310;44.626;11.176;2023-04-26T11:57:54;4.65;;;4.35;;
16401;SDS011;8310;44.626;11.176;2023-04-26T12:00:23;5.03;;;3.63;;
16401;SDS011;8310;44.626;11.176;2023-04-26T12:02:51;3.80;;;3.60;;
16401;SDS011;8310;44.626;11.176;2023-04-26T12:05:23;3.63;;;3.42;;
16401;SDS011;8310;44.626;11.176;2023-04-26T12:07:52;3.72;;;3.53;;
16401;SDS011;8310;44.626;11.176;2023-04-26T12:10:22;3.30;;;3.00;;
16401;SDS011;8310;44.626;11.176;2023-04-26T12:12:52;4.13;;;3.70;;
16401;SDS011;8310;44.626;11.176;2023-04-26T12:15:24;3.30;;;3.10;;
16401;SDS011;8310;44.626;11.176;2023-04-26T12:17:58;3.13;;;2.88;;
16401;SDS011;8310;44.626;11.176;2023-04-26T12:20:31;2.92;;;2.72;;
16401;SDS011;8310;44.626;11.176;2023-04-26T12:23:01;2.90;;;2.70;;
16401;SDS011;8310;44.626;11.176;2023-04-26T12:25:31;2.78;;;2.60;;
16401;SDS011;8310;44.626;11.176;2023-04-26T12:28:04;2.80;;;2.60;;
16401;SDS011;8310;44.626;11.176;2023-04-26T12:30:39;3.25;;;3.05;;
16401;SDS011;8310;44.626;11.176;2023-04-26T12:33:06;2.42;;;2.28;;
16401;SDS011;8310;44.626;11.176;2023-04-26T12:35:35;3.00;;;2.80;;
16401;SDS011;8310;44.626;11.176;2023-04-26T12:38:03;2.92;;;2.40;;
16401;SDS011;8310;44.626;11.176;2023-04-26T12:40:31;2.40;;;2.20;;
16401;SDS011;8310;44.626;11.176;2023-04-26T12:42:59;2.50;;;2.35;;
16401;SDS011;8310;44.626;11.176;2023-04-26T12:45:27;2.20;;;2.10;;
16401;SDS011;8310;44.626;11.176;2023-04-26T12:47:55;2.47;;;2.30;;
16401;SDS011;8310;44.626;11.176;2023-04-26T12:50:23;2.42;;;2.22;;
16401;SDS011;8310;44.626;11.176;2023-04-26T12:52:52;2.47;;;2.30;;
16401;SDS011;8310;44.626;11.176;2023-04-26T12:55:20;2.38;;;2.28;;
16401;SDS011;8310;44.626;11.176;2023-04-26T12:57:47;2.63;;;2.42;;
16401;SDS011;8310;44.626;11.176;2023-04-26T13:00:15;3.15;;;2.00;;
16401;SDS011;8310;44.626;11.176;2023-04-26T13:02:43;1.70;;;1.60;;
16401;SDS011;8310;44.626;11.176;2023-04-26T13:05:11;1.83;;;1.50;;
16401;SDS011;8310;44.626;11.176;2023-04-26T13:07:38;1.70;;;1.60;;
16401;SDS011;8310;44.626;11.176;2023-04-26T13:10:09;1.63;;;1.52;;
16401;SDS011;8310;44.626;11.176;2023-04-26T13:12:37;1.52;;;1.40;;
16401;SDS011;8310;44.626;11.176;2023-04-26T13:15:05;1.52;;;1.30;;
16401;SDS011;8310;44.626;11.176;2023-04-26T13:17:34;2.47;;;1.67;;
16401;SDS011;8310;44.626;11.176;2023-04-26T13:20:02;1.83;;;1.67;;
16401;SDS011;8310;44.626;11.176;2023-04-26T13:22:30;1.60;;;1.50;;
16401;SDS011;8310;44.626;11.176;2023-04-26T13:24:58;2.70;;;1.70;;
16401;SDS011;8310;44.626;11.176;2023-04-26T13:27:27;1.67;;;1.58;;
16401;SDS011;8310;44.626;11.176;2023-04-26T13:29:54;1.88;;;1.77;;
16401;SDS011;8310;44.626;11.176;2023-04-26T13:32:24;1.73;;;1.55;;
16401;SDS011;8310;44.626;11.176;2023-04-26T13:34:52;1.38;;;1.38;;
16401;SDS011;8310;44.626;11.176;2023-04-26T13:37:20;1.40;;;1.40;;
16401;SDS011;8310;44.626;11.176;2023-04-26T13:39:47;1.52;;;1.30;;
16401;SDS011;8310;44.626;11.176;2023-04-26T13:42:16;1.27;;;1.20;;
16401;SDS011;8310;44.626;11.176;2023-04-26T13:44:45;1.33;;;1.23;;
16401;SDS011;8310;44.626;11.176;2023-04-26T13:47:13;1.95;;;1.30;;
16401;SDS011;8310;44.626;11.176;2023-04-26T13:49:40;11.38;;;2.08;;
16401;SDS011;8310;44.626;11.176;2023-04-26T13:52:08;1.27;;;1.15;;
16401;SDS011;8310;44.626;11.176;2023-04-26T13:54:36;1.83;;;1.73;;
16401;SDS011;8310;44.626;11.176;2023-04-26T13:59:40;2.03;;;1.40;;
16401;SDS011;8310;44.626;11.176;2023-04-26T14:02:09;5.72;;;1.60;;
16401;SDS011;8310;44.626;11.176;2023-04-26T14:04:38;2.05;;;1.20;;
16401;SDS011;8310;44.626;11.176;2023-04-26T14:07:08;2.30;;;1.60;;
16401;SDS011;8310;44.626;11.176;2023-04-26T14:09:36;1.52;;;1.42;;
16401;SDS011;8310;44.626;11.176;2023-04-26T14:12:05;1.50;;;1.33;;
16401;SDS011;8310;44.626;11.176;2023-04-26T14:14:32;1.98;;;1.20;;
16401;SDS011;8310;44.626;11.176;2023-04-26T14:17:00;3.65;;;1.70;;
16401;SDS011;8310;44.626;11.176;2023-04-26T14:19:29;2.10;;;1.30;;
16401;SDS011;8310;44.626;11.176;2023-04-26T14:21:56;1.60;;;1.40;;
16401;SDS011;8310;44.626;11.176;2023-04-26T14:24:24;1.83;;;1.35;;
16401;SDS011;8310;44.626;11.176;2023-04-26T14:26:51;2.78;;;1.90;;
16401;SDS011;8310;44.626;11.176;2023-04-26T14:29:19;1.67;;;1.58;;
16401;SDS011;8310;44.626;11.176;2023-04-26T14:31:47;1.38;;;1.20;;
16401;SDS011;8310;44.626;11.176;2023-04-26T14:34:15;4.80;;;1.33;;
16401;SDS011;8310;44.626;11.176;2023-04-26T14:36:44;2.92;;;1.50;;
16401;SDS011;8310;44.626;11.176;2023-04-26T14:39:12;4.40;;;1.25;;
16401;SDS011;8310;44.626;11.176;2023-04-26T14:41:40;1.17;;;1.17;;
16401;SDS011;8310;44.626;11.176;2023-04-26T14:44:08;2.28;;;1.02;;
16401;SDS011;8310;44.626;11.176;2023-04-26T14:46:36;1.70;;;1.30;;
16401;SDS011;8310;44.626;11.176;2023-04-26T14:49:03;4.25;;;1.20;;
16401;SDS011;8310;44.626;11.176;2023-04-26T14:51:31;1.42;;;1.10;;
16401;SDS011;8310;44.626;11.176;2023-04-26T14:54:00;1.17;;;1.17;;
16401;SDS011;8310;44.626;11.176;2023-04-26T14:56:30;3.03;;;1.10;;
16401;SDS011;8310;44.626;11.176;2023-04-26T14:58:59;1.45;;;1.35;;
16401;SDS011;8310;44.626;11.176;2023-04-26T15:01:26;2.17;;;1.48;;
16401;SDS011;8310;44.626;11.176;2023-04-26T15:03:54;2.22;;;1.15;;
16401;SDS011;8310;44.626;11.176;2023-04-26T15:06:22;1.60;;;1.20;;
16401;SDS011;8310;44.626;11.176;2023-04-26T15:08:49;0.98;;;0.98;;
16401;SDS011;8310;44.626;11.176;2023-04-26T15:11:19;1.10;;;1.10;;